createdAt,value
2023-05-01T00:01:14.284Z,13.90
2023-05-01T00:04:17.469Z,15.75
2023-05-01T00:07:19.685Z,15.48
2023-05-01T00:10:22.219Z,21.70
2023-05-01T00:13:24.652Z,24.95
2023-05-01T00:16:26.827Z,17.90
2023-05-01T00:19:28.978Z,17.23
2023-05-01T00:22:31.116Z,16.70
2023-05-01T00:25:33.243Z,16.33
2023-05-01T00:28:35.312Z,18.13
2023-05-01T00:31:37.565Z,15.85
2023-05-01T00:34:39.869Z,17.17
2023-05-01T00:37:42.278Z,17.23
2023-05-01T00:40:45.518Z,18.02
2023-05-01T00:43:47.934Z,16.25
2023-05-01T00:46:50.187Z,16.85
2023-05-01T00:49:54.537Z,15.85
2023-05-01T00:52:57.187Z,19.00
2023-05-01T00:56:00.924Z,17.20
2023-05-01T00:59:03.389Z,17.20
2023-05-01T01:02:05.696Z,15.90
2023-05-01T01:05:07.996Z,15.52
2023-05-01T01:08:26.835Z,18.02
2023-05-01T01:11:48.899Z,14.88
2023-05-01T01:15:05.910Z,18.73
2023-05-01T01:18:27.917Z,17.92
2023-05-01T01:21:45.341Z,17.50
2023-05-01T01:25:19.444Z,15.20
2023-05-01T01:28:55.971Z,18.45
2023-05-01T01:32:31.752Z,17.63
2023-05-01T01:35:36.936Z,17.80
2023-05-01T01:38:52.996Z,19.15
2023-05-01T01:41:57.798Z,17.17
2023-05-01T01:45:05.165Z,19.10
2023-05-01T01:48:11.864Z,19.63
2023-05-01T01:51:18.237Z,15.68
2023-05-01T01:54:27.394Z,18.33
2023-05-01T01:57:30.733Z,18.20
2023-05-01T02:00:35.781Z,17.55
2023-05-01T02:03:40.050Z,16.58
2023-05-01T02:06:44.667Z,14.85
2023-05-01T02:09:48.409Z,17.75
2023-05-01T02:12:53.397Z,16.08
2023-05-01T02:16:00.679Z,17.98
2023-05-01T02:19:05.140Z,15.43
2023-05-01T02:22:08.960Z,16.60
2023-05-01T02:25:12.783Z,16.90
2023-05-01T02:28:19.518Z,19.38
2023-05-01T02:31:23.149Z,21.95
2023-05-01T02:34:25.356Z,17.95
2023-05-01T02:37:28.227Z,18.00
2023-05-01T02:40:32.915Z,18.17
2023-05-01T02:43:36.736Z,18.45
2023-05-01T02:46:43.394Z,16.35
2023-05-01T02:49:48.248Z,15.45
2023-05-01T02:52:51.276Z,16.73
2023-05-01T02:55:53.668Z,19.92
2023-05-01T02:58:56.174Z,15.48
2023-05-01T03:01:58.203Z,21.27
2023-05-01T03:05:00.265Z,15.82
2023-05-01T03:08:02.361Z,18.60
2023-05-01T03:11:08.059Z,18.80
2023-05-01T03:14:11.315Z,20.38
2023-05-01T03:17:13.421Z,20.50
2023-05-01T03:20:17.275Z,16.85
2023-05-01T03:23:19.820Z,20.63
2023-05-01T03:26:21.878Z,16.70
2023-05-01T03:29:24.305Z,19.58
2023-05-01T03:32:29.190Z,19.45
2023-05-01T03:35:31.764Z,20.17
2023-05-01T03:38:34.415Z,17.42
2023-05-01T03:41:36.451Z,19.50
2023-05-01T03:44:38.699Z,17.35
2023-05-01T03:47:40.887Z,19.30
2023-05-01T03:50:43.602Z,18.23
2023-05-01T03:53:45.684Z,17.75
2023-05-01T03:56:47.856Z,19.42
2023-05-01T03:59:50.251Z,22.52
2023-05-01T04:02:52.979Z,22.88
2023-05-01T04:05:55.635Z,20.83
2023-05-01T04:08:57.755Z,22.05
2023-05-01T04:11:59.862Z,24.33
2023-05-01T04:15:01.930Z,23.90
2023-05-01T04:18:04.162Z,22.45
2023-05-01T04:21:06.534Z,23.20
2023-05-01T04:24:08.879Z,22.10
2023-05-01T04:27:11.302Z,21.48
2023-05-01T04:30:13.485Z,25.30
2023-05-01T04:33:15.788Z,20.77
2023-05-01T04:36:17.961Z,21.38
2023-05-01T04:39:20.053Z,19.73
2023-05-01T04:42:22.446Z,18.52
2023-05-01T04:45:25.142Z,23.25
2023-05-01T04:48:27.388Z,18.70
2023-05-01T04:51:29.684Z,19.75
2023-05-01T04:54:31.860Z,19.38
2023-05-01T04:57:33.915Z,19.85
2023-05-01T05:00:36.190Z,16.67
2023-05-01T05:03:38.349Z,22.02
2023-05-01T05:06:40.820Z,24.20
2023-05-01T05:09:43.111Z,24.83
2023-05-01T05:12:45.166Z,19.23
2023-05-01T05:15:47.384Z,20.73
2023-05-01T05:18:49.703Z,18.15
2023-05-01T05:21:51.809Z,19.95
2023-05-01T05:24:55.817Z,18.98
2023-05-01T05:27:57.955Z,17.38
2023-05-01T05:31:00.068Z,18.20
2023-05-01T05:34:02.129Z,19.63
2023-05-01T05:37:04.208Z,26.02
2023-05-01T05:40:06.934Z,22.95
2023-05-01T05:43:10.694Z,31.73
2023-05-01T05:46:12.762Z,40.42
2023-05-01T05:49:14.999Z,30.02
2023-05-01T05:52:17.644Z,31.40
2023-05-01T05:55:19.668Z,38.00
2023-05-01T05:58:22.581Z,34.80
2023-05-01T06:01:24.837Z,25.23
2023-05-01T06:04:26.943Z,34.40
2023-05-01T06:07:29.137Z,35.72
2023-05-01T06:10:31.435Z,32.70
2023-05-01T06:13:33.608Z,14.13
2023-05-01T06:16:35.853Z,14.30
2023-05-01T06:19:38.105Z,10.00
2023-05-01T06:22:40.548Z,9.63
2023-05-01T06:25:42.877Z,10.27
2023-05-01T06:28:45.313Z,10.50
2023-05-01T06:31:47.495Z,9.32
2023-05-01T06:34:49.860Z,10.80
2023-05-01T06:37:51.827Z,8.73
2023-05-01T06:40:54.061Z,7.97
2023-05-01T06:43:56.312Z,7.07
2023-05-01T06:46:58.806Z,6.80
2023-05-01T06:50:02.425Z,6.38
2023-05-01T06:53:05.907Z,6.07
2023-05-01T06:56:08.864Z,6.13
2023-05-01T06:59:11.006Z,6.70
2023-05-01T07:02:13.069Z,6.53
2023-05-01T07:05:15.438Z,6.40
2023-05-01T07:08:17.621Z,5.18
2023-05-01T07:11:20.459Z,5.07
2023-05-01T07:14:23.124Z,6.45
2023-05-01T07:17:26.008Z,7.20
2023-05-01T07:20:28.329Z,8.85
2023-05-01T07:23:30.366Z,7.18
2023-05-01T07:26:32.445Z,5.30
2023-05-01T07:29:38.149Z,6.57
2023-05-01T07:32:41.001Z,6.10
2023-05-01T07:35:43.325Z,4.47
2023-05-01T07:38:45.422Z,5.05
2023-05-01T07:41:47.646Z,5.75
2023-05-01T07:44:51.176Z,5.45
2023-05-01T07:47:53.365Z,5.75
2023-05-01T07:50:57.115Z,6.15
2023-05-01T07:54:04.420Z,5.50
2023-05-01T07:57:06.864Z,5.88
2023-05-01T08:00:09.772Z,5.82
2023-05-01T08:03:13.055Z,5.47
2023-05-01T08:06:15.310Z,5.85
2023-05-01T08:09:18.105Z,6.18
2023-05-01T08:12:20.415Z,6.47
2023-05-01T08:15:22.438Z,7.15
2023-05-01T08:18:24.633Z,4.72
2023-05-01T08:21:26.925Z,5.95
2023-05-01T08:24:29.859Z,6.15
2023-05-01T08:27:31.963Z,6.38
2023-05-01T08:30:34.066Z,6.43
2023-05-01T08:33:36.101Z,6.68
2023-05-01T08:36:38.364Z,6.18
2023-05-01T08:39:40.723Z,4.63
2023-05-01T08:42:43.484Z,8.30
2023-05-01T08:45:47.889Z,7.00
2023-05-01T08:48:51.835Z,7.75
2023-05-01T08:51:56.949Z,5.05
2023-05-01T08:55:01.542Z,5.20
2023-05-01T08:58:06.990Z,5.00
2023-05-01T09:01:13.481Z,6.07
2023-05-01T09:04:17.513Z,7.60
2023-05-01T09:07:20.325Z,5.65
2023-05-01T09:10:22.540Z,7.80
2023-05-01T09:13:26.398Z,5.28
2023-05-01T09:16:29.857Z,4.75
2023-05-01T09:19:32.013Z,5.75
2023-05-01T09:22:35.493Z,4.40
2023-05-01T09:25:38.666Z,6.10
2023-05-01T09:28:47.996Z,5.13
2023-05-01T09:31:50.076Z,4.65
2023-05-01T09:34:52.875Z,5.70
2023-05-01T09:37:55.011Z,5.43
2023-05-01T09:41:04.506Z,4.60
2023-05-01T09:44:19.387Z,4.85
2023-05-01T09:47:24.992Z,5.13
2023-05-01T09:50:32.456Z,6.60
2023-05-01T09:53:41.785Z,4.95
2023-05-01T09:56:50.303Z,6.55
2023-05-01T10:00:14.059Z,6.07
2023-05-01T10:03:16.482Z,7.60
2023-05-01T10:06:28.830Z,4.38
2023-05-01T10:09:32.419Z,4.80
2023-05-01T10:12:34.509Z,3.58
2023-05-01T10:15:37.802Z,7.38
2023-05-01T10:18:40.018Z,4.65
2023-05-01T10:21:42.504Z,7.90
2023-05-01T10:24:46.248Z,4.80
2023-05-01T10:27:50.346Z,5.60
2023-05-01T10:30:54.075Z,3.38
2023-05-01T10:33:56.908Z,4.68
2023-05-01T10:37:02.744Z,4.90
2023-05-01T10:40:39.025Z,4.97
2023-05-01T10:43:41.177Z,6.03
2023-05-01T10:46:44.608Z,5.60
2023-05-01T10:50:09.910Z,4.25
2023-05-01T10:53:12.173Z,6.63
2023-05-01T10:56:27.048Z,5.95
2023-05-01T11:00:03.864Z,4.80
2023-05-01T11:03:21.800Z,4.80
2023-05-01T11:06:24.669Z,6.20
2023-05-01T11:09:38.792Z,5.78
2023-05-01T11:12:46.935Z,6.03
2023-05-01T11:15:49.164Z,5.97
2023-05-01T11:18:51.293Z,4.07
2023-05-01T11:21:54.313Z,5.07
2023-05-01T11:24:56.823Z,4.22
2023-05-01T11:28:01.912Z,5.78
2023-05-01T11:31:04.183Z,4.22
2023-05-01T11:34:07.253Z,5.57
2023-05-01T11:37:09.313Z,4.55
2023-05-01T11:40:26.084Z,4.07
2023-05-01T11:43:28.332Z,3.33
2023-05-01T11:46:33.914Z,3.90
2023-05-01T11:49:36.391Z,4.57
2023-05-01T11:52:46.805Z,6.10
2023-05-01T11:55:49.398Z,6.05
2023-05-01T11:58:51.807Z,5.68
2023-05-01T12:01:54.301Z,3.45
2023-05-01T12:04:56.678Z,3.80
2023-05-01T12:08:18.889Z,6.85
2023-05-01T12:11:21.321Z,5.57
2023-05-01T12:14:24.356Z,3.58
2023-05-01T12:17:28.063Z,5.55
2023-05-01T12:20:39.346Z,5.18
2023-05-01T12:23:41.375Z,3.17
2023-05-01T12:26:47.017Z,2.72
2023-05-01T12:29:49.639Z,3.20
2023-05-01T12:32:52.576Z,4.30
2023-05-01T12:35:54.691Z,3.88
2023-05-01T12:39:03.025Z,3.03
2023-05-01T12:42:12.254Z,4.43
2023-05-01T12:45:15.730Z,5.03
2023-05-01T12:48:19.046Z,3.80
2023-05-01T12:51:21.622Z,4.38
2023-05-01T12:54:33.759Z,4.38
2023-05-01T12:57:36.591Z,5.32
2023-05-01T13:00:48.445Z,4.40
2023-05-01T13:03:51.328Z,2.53
2023-05-01T13:06:57.525Z,3.90
2023-05-01T13:10:00.180Z,3.70
2023-05-01T13:13:02.996Z,4.70
2023-05-01T13:16:09.999Z,3.50
2023-05-01T13:19:13.916Z,3.20
2023-05-01T13:22:16.046Z,6.68
2023-05-01T13:25:22.537Z,2.13
2023-05-01T13:28:25.442Z,2.35
2023-05-01T13:31:28.424Z,2.17
2023-05-01T13:34:33.128Z,2.85
2023-05-01T13:37:40.088Z,2.33
2023-05-01T13:40:42.471Z,3.88
2023-05-01T13:43:44.550Z,3.30
2023-05-01T13:46:47.468Z,2.67
2023-05-01T13:49:49.898Z,2.03
2023-05-01T13:52:52.223Z,2.85
2023-05-01T13:55:54.736Z,4.40
2023-05-01T13:58:59.247Z,3.97
2023-05-01T14:02:01.318Z,3.50
2023-05-01T14:05:09.530Z,3.67
2023-05-01T14:08:12.059Z,3.30
2023-05-01T14:11:14.877Z,1.90
2023-05-01T14:14:18.593Z,3.58
2023-05-01T14:17:33.590Z,3.72
2023-05-01T14:20:35.945Z,2.03
2023-05-01T14:23:39.780Z,4.50
2023-05-01T14:26:44.448Z,2.75
2023-05-01T14:29:46.915Z,3.97
2023-05-01T14:32:49.052Z,5.03
2023-05-01T14:35:53.259Z,2.53
2023-05-01T14:38:59.863Z,2.30
2023-05-01T14:42:02.770Z,5.60
2023-05-01T14:45:06.745Z,2.13
2023-05-01T14:48:10.512Z,3.28
2023-05-01T14:51:12.994Z,3.00
2023-05-01T14:54:16.176Z,2.10
2023-05-01T14:57:18.282Z,2.10
2023-05-01T15:00:21.091Z,2.63
2023-05-01T15:03:23.426Z,2.38
2023-05-01T15:06:26.504Z,2.53
2023-05-01T15:09:28.771Z,2.33
2023-05-01T15:12:31.014Z,2.17
2023-05-01T15:15:33.288Z,4.90
2023-05-01T15:18:36.539Z,3.38
2023-05-01T15:21:38.599Z,3.65
2023-05-01T15:24:40.788Z,4.18
2023-05-01T15:27:44.000Z,2.97
2023-05-01T15:30:48.413Z,3.10
2023-05-01T15:33:50.851Z,3.10
2023-05-01T15:36:53.441Z,2.70
2023-05-01T15:39:56.694Z,4.93
2023-05-01T15:42:59.101Z,3.00
2023-05-01T15:46:01.271Z,4.45
2023-05-01T15:49:06.831Z,5.45
2023-05-01T15:52:08.972Z,3.67
2023-05-01T15:55:12.134Z,3.20
2023-05-01T15:58:16.078Z,3.72
2023-05-01T16:01:18.250Z,2.42
2023-05-01T16:04:20.861Z,4.20
2023-05-01T16:07:22.993Z,5.15
2023-05-01T16:10:37.381Z,4.03
2023-05-01T16:13:40.779Z,2.90
2023-05-01T16:16:43.445Z,4.78
2023-05-01T16:19:46.631Z,4.85
2023-05-01T16:22:48.801Z,3.90
2023-05-01T16:25:50.969Z,4.45
2023-05-01T16:28:58.499Z,2.95
2023-05-01T16:32:01.063Z,4.18
2023-05-01T16:35:05.543Z,4.80
2023-05-01T16:38:07.954Z,4.13
2023-05-01T16:41:13.284Z,3.28
2023-05-01T16:44:16.444Z,3.03
2023-05-01T16:47:18.714Z,3.50
2023-05-01T16:50:24.366Z,3.85
2023-05-01T16:53:26.798Z,3.53
2023-05-01T16:56:28.970Z,2.45
2023-05-01T16:59:31.646Z,2.65
2023-05-01T17:02:34.232Z,3.10
2023-05-01T17:05:36.336Z,4.20
2023-05-01T17:08:38.544Z,5.95
2023-05-01T17:11:41.453Z,3.33
2023-05-01T17:14:45.092Z,2.97
2023-05-01T17:17:47.237Z,3.85
2023-05-01T17:20:49.500Z,4.75
2023-05-01T17:23:51.810Z,3.00
2023-05-01T17:26:53.977Z,3.15
2023-05-01T17:29:56.375Z,2.80
2023-05-01T17:32:59.287Z,5.22
2023-05-01T17:36:02.992Z,5.10
2023-05-01T17:39:05.364Z,5.15
2023-05-01T17:42:07.497Z,3.03
2023-05-01T17:45:10.584Z,4.25
2023-05-01T17:48:13.519Z,5.75
2023-05-01T17:51:15.771Z,3.35
2023-05-01T17:54:18.184Z,3.10
2023-05-01T17:57:20.652Z,4.65
2023-05-01T18:00:23.614Z,3.63
2023-05-01T18:03:27.513Z,3.80
2023-05-01T18:06:29.896Z,3.47
2023-05-01T18:09:33.505Z,4.13
2023-05-01T18:12:35.669Z,5.20
2023-05-01T18:15:38.299Z,6.60
2023-05-01T18:18:42.784Z,7.10
2023-05-01T18:21:45.043Z,8.57
2023-05-01T18:24:47.647Z,3.53
2023-05-01T18:27:50.355Z,4.38
2023-05-01T18:30:52.773Z,5.78
2023-05-01T18:33:55.688Z,4.30
2023-05-01T18:36:59.080Z,3.92
2023-05-01T18:40:01.833Z,3.97
2023-05-01T18:43:04.398Z,5.97
2023-05-01T18:46:07.792Z,4.78
2023-05-01T18:49:10.550Z,7.43
2023-05-01T18:52:14.209Z,5.88
2023-05-01T18:55:17.859Z,4.43
2023-05-01T18:58:20.385Z,4.35
2023-05-01T19:01:23.830Z,6.78
2023-05-01T19:04:26.831Z,6.45
2023-05-01T19:07:30.004Z,4.55
2023-05-01T19:10:32.210Z,5.82
2023-05-01T19:13:35.070Z,8.30
2023-05-01T19:16:38.398Z,9.70
2023-05-01T19:19:41.444Z,7.57
2023-05-01T19:22:44.952Z,7.47
2023-05-01T19:25:47.799Z,22.05
2023-05-01T19:28:51.613Z,18.83
2023-05-01T19:31:56.431Z,25.60
2023-05-01T19:34:59.301Z,17.27
2023-05-01T19:38:02.682Z,15.10
2023-05-01T19:41:05.821Z,18.25
2023-05-01T19:44:08.906Z,15.40
2023-05-01T19:47:11.889Z,16.27
2023-05-01T19:50:21.307Z,9.55
2023-05-01T19:53:24.397Z,9.20
2023-05-01T19:56:26.774Z,5.65
2023-05-01T19:59:30.038Z,7.03
2023-05-01T20:02:32.849Z,9.45
2023-05-01T20:05:37.073Z,6.25
2023-05-01T20:08:39.347Z,11.57
2023-05-01T20:11:41.656Z,7.35
2023-05-01T20:14:43.834Z,6.57
2023-05-01T20:17:51.686Z,5.90
2023-05-01T20:20:54.640Z,5.50
2023-05-01T20:23:57.959Z,5.90
2023-05-01T20:27:00.677Z,7.03
2023-05-01T20:30:03.409Z,5.72
2023-05-01T20:33:08.273Z,5.53
2023-05-01T20:36:10.476Z,8.50
2023-05-01T20:39:12.840Z,7.80
2023-05-01T20:42:15.369Z,6.20
2023-05-01T20:45:18.241Z,5.25
2023-05-01T20:48:20.688Z,6.18
2023-05-01T20:51:23.133Z,8.55
2023-05-01T20:54:25.596Z,6.22
2023-05-01T20:57:28.044Z,8.02
2023-05-01T21:00:30.394Z,6.43
2023-05-01T21:03:33.188Z,8.00
2023-05-01T21:06:36.676Z,8.30
2023-05-01T21:09:44.921Z,7.82
2023-05-01T21:12:47.072Z,9.95
2023-05-01T21:15:49.275Z,8.07
2023-05-01T21:18:51.708Z,9.80
2023-05-01T21:21:55.347Z,7.07
2023-05-01T21:24:59.506Z,8.27
2023-05-01T21:28:03.557Z,9.43
2023-05-01T21:31:05.987Z,12.55
2023-05-01T21:34:09.257Z,10.48
2023-05-01T21:37:13.887Z,10.30
2023-05-01T21:40:16.446Z,10.60
2023-05-01T21:43:19.872Z,11.02
2023-05-01T21:46:22.040Z,13.30
2023-05-01T21:49:27.187Z,15.18
2023-05-01T21:52:30.107Z,12.43
2023-05-01T21:55:32.792Z,9.57
2023-05-01T21:58:35.585Z,8.93
2023-05-01T22:01:41.195Z,10.57
2023-05-01T22:04:44.290Z,9.32
2023-05-01T22:07:47.401Z,13.73
2023-05-01T22:10:49.481Z,11.73
2023-05-01T22:13:51.543Z,10.55
2023-05-01T22:16:53.778Z,10.93
2023-05-01T22:19:56.103Z,9.82
2023-05-01T22:22:58.180Z,11.30
2023-05-01T22:26:00.348Z,11.30
2023-05-01T22:29:02.761Z,11.02
2023-05-01T22:32:05.097Z,10.45
2023-05-01T22:35:08.890Z,8.88
2023-05-01T22:38:11.012Z,9.40
2023-05-01T22:41:15.088Z,10.50
2023-05-01T22:44:17.136Z,11.15
2023-05-01T22:47:19.247Z,11.32
2023-05-01T22:50:21.508Z,9.80
2023-05-01T22:53:23.853Z,10.30
2023-05-01T22:56:26.367Z,9.73
2023-05-01T22:59:28.433Z,10.45
2023-05-01T23:02:30.582Z,9.98
2023-05-01T23:05:33.140Z,11.75
2023-05-01T23:08:35.631Z,8.68
2023-05-01T23:11:40.866Z,11.13
2023-05-01T23:14:45.855Z,10.32
2023-05-01T23:17:47.956Z,8.80
2023-05-01T23:20:52.561Z,9.57
2023-05-01T23:23:54.940Z,9.13
2023-05-01T23:26:57.426Z,9.48
2023-05-01T23:29:59.898Z,13.45
2023-05-01T23:33:02.517Z,10.40
2023-05-01T23:36:10.340Z,11.75
2023-05-01T23:39:12.513Z,12.40
2023-05-01T23:42:14.937Z,11.90
2023-05-01T23:45:17.376Z,10.75
2023-05-01T23:48:19.405Z,11.85
2023-05-01T23:51:21.495Z,11.48
2023-05-01T23:54:23.594Z,9.52
2023-05-01T23:57:25.864Z,10.93
